Latest Coastal Weather Observations for Wadeye (Port Keats)

IDD60701

Issued at 7:21 am CST Sunday 21 April 2024 (issued every 10 minutes, with the page automatically refreshed every 10 minutes)

About coastal observations | Map of coastal stations | Coastal observations for NT | Marine services | Other Formats
Station Details ID: 014948 Name: PORT KEATS AIRPORT Lat: -14.25 Lon: 129.53 Height: 28.0 m
Data from the previous 72 hours. | See also: Recent months at Wadeye (Port Keats)
Date/Time
CST
Wind Sea
Height
m
Swell Vis
km
Cloud Weather Temp
°C
Press
MSL
hPa
Rain since
9am
mm
Dir  Spd
kts
Gust
kts
Height
m
Period
s
Dir
21/07:00am SE 8 10 - - - - - - - 23.0 1011.3 0.0
21/06:30am SE 8 11 - - - - - - - 23.2 1011.1 0.0
21/06:00am SE 9 13 - - - - - - - 23.6 1011.0 0.0
21/05:30am SE 8 11 - - - - - - - 23.7 1011.0 0.0
21/05:00am SE 9 14 - - - - - - - 24.2 1010.8 0.0
21/04:30am SE 10 14 - - - - - - - 24.4 1010.9 0.0
21/04:00am SE 11 15 - - - - - - - 24.8 1010.7 0.0
21/03:30am SE 12 16 - - - - - - - 25.1 1010.7 0.0
21/03:00am SE 12 15 - - - - - - - 25.5 1010.6 0.0
21/02:30am SE 10 14 - - - - - - - 25.6 1010.8 0.0
21/02:00am SE 10 13 - - - - - - - 25.9 1010.9 0.0
21/01:30am SSE 10 15 - - - - - - - 26.3 1011.1 0.0
21/01:00am SSE 8 10 - - - - - - - 26.2 1011.3 0.0
21/12:30am SSE 7 9 - - - - - - - 25.9 1011.4 0.0
21/12:00am SSE 7 10 - - - - - - - 26.3 1011.6 0.0
 
Date/Time
CST
Wind Sea
Height
m
Swell Vis
km
Cloud Weather Temp
°C
Press
MSL
hPa
Rain since
9am
mm
Dir  Spd
kts
Gust
kts
Height
m
Period
s
Dir
20/11:30pm SSE 5 8 - - - - - - - 25.3 1011.7 0.0
20/11:00pm SSE 5 8 - - - - - - - 25.7 1011.7 0.0
20/10:30pm SSE 5 7 - - - - - - - 25.8 1011.7 0.0
20/10:00pm SSE 5 6 - - - - - - - 25.2 1011.8 0.0
20/09:30pm S 4 6 - - - - - - - 26.0 1011.8 0.0
20/09:00pm SSE 5 8 - - - - - - - 26.3 1011.7 0.0
20/08:30pm SSE 5 8 - - - - - - - 26.8 1011.4 0.0
20/08:00pm SSE 5 6 - - - - - - - 27.5 1010.9 0.0
20/07:30pm SSE 4 5 - - - - - - - 27.6 1010.5 0.0
20/07:00pm S 4 5 - - - - - - - 28.4 1010.2 0.0
20/06:30pm SSE 5 7 - - - - - - - 30.4 1009.7 0.0
20/06:00pm S 6 8 - - - - - - - 31.5 1009.5 0.0
20/05:30pm SSE 7 11 - - - - - - - 32.6 1009.2 0.0
20/05:00pm SE 9 12 - - - - - - - 32.8 1008.9 0.0
20/04:30pm SE 9 13 - - - - - - - 33.2 1008.6 0.0
20/04:00pm SE 10 14 - - - - - - - 33.3 1008.5 0.0
20/03:30pm SSE 9 15 - - - - - - - 33.6 1008.7 0.0
20/03:00pm SSE 10 15 - - - - - - - 32.7 1008.9 0.0
20/02:30pm SE 9 14 - - - - - - - 33.2 1009.5 0.0
20/02:00pm SE 11 17 - - - - - - - 32.9 1010.0 0.0
20/01:30pm SE 12 17 - - - - - - - 32.1 1010.5 0.0
20/01:00pm ESE 10 16 - - - - - - - 32.1 1010.8 0.0
20/12:30pm SE 12 19 - - - - - - - 31.4 1011.1 0.0
20/12:00pm SE 14 19 - - - - - - - 30.7 1011.4 0.0
20/11:30am ESE 13 18 - - - - - - - 29.9 1011.7 0.0
20/11:00am SE 14 21 - - - - - - - 29.5 1012.2 0.0
20/10:30am SE 12 19 - - - - - - - 29.0 1012.4 0.0
20/10:00am SE 14 20 - - - - - - - 28.3 1012.5 0.0
20/09:30am SE 14 19 - - - - - - - 27.5 1012.4 0.0
20/09:00am SE 12 16 - - - - - - - 27.1 1012.2 0.0
20/08:30am SE 11 16 - - - - - - - 26.3 1012.2 0.0
20/08:00am SE 10 14 - - - - - - - 25.6 1012.3 0.0
20/07:30am SE 9 12 - - - - - - - 25.0 1011.9 0.0
20/07:00am SE 11 14 - - - - - - - 24.9 1011.4 0.0
20/06:30am SE 10 14 - - - - - - - 25.2 1011.1 0.0
20/06:00am SE 9 13 - - - - - - - 25.2 1010.9 0.0
20/05:30am SE 10 14 - - - - - - - 25.4 1010.6 0.0
20/05:00am SE 11 15 - - - - - - - 25.8 1010.4 0.0
20/04:30am SE 13 18 - - - - - - - 26.2 1010.2 0.0
20/04:00am SE 10 15 - - - - - - - 26.1 1010.3 0.0
20/03:30am SE 11 16 - - - - - - - 26.4 1010.2 0.0
20/03:00am SSE 9 11 - - - - - - - 26.3 1010.4 0.0
20/02:30am SSE 8 11 - - - - - - - 26.3 1010.5 0.0
20/02:00am SSE 8 10 - - - - - - - 26.4 1010.6 0.0
20/01:30am SSE 8 10 - - - - - - - 26.9 1010.8 0.0
20/01:00am SSE 9 13 - - - - - - - 27.3 1010.9 0.0
20/12:30am SSE 8 12 - - - - - - - 27.5 1011.0 0.0
20/12:00am SSE 7 11 - - - - - - - 27.2 1011.2 0.0
 
Date/Time
CST
Wind Sea
Height
m
Swell Vis
km
Cloud Weather Temp
°C
Press
MSL
hPa
Rain since
9am
mm
Dir  Spd
kts
Gust
kts
Height
m
Period
s
Dir
19/11:30pm S 4 6 - - - - - - - 25.7 1011.5 0.0
19/11:00pm S 4 6 - - - - - - - 26.9 1011.7 0.0
19/10:30pm S 5 8 - - - - - - - 27.4 1011.7 0.0
19/10:00pm S 5 8 - - - - - - - 28.0 1011.6 0.0
19/09:30pm SSE 6 8 - - - - - - - 28.5 1011.5 0.0
19/09:00pm SSE 8 11 - - - - - - - 29.3 1011.1 0.0
19/08:30pm SSE 7 9 - - - - - - - 29.3 1010.9 0.0
19/08:00pm S 7 11 - - - - - - - 29.3 1010.1 0.0
19/07:30pm S 5 8 - - - - - - - 29.5 1009.8 0.0
19/07:00pm S 4 7 - - - - - - - 30.1 1009.3 0.0
19/06:30pm SSE 6 8 - - - - - - - 31.5 1009.1 0.0
19/06:00pm SSE 9 12 - - - - - - - 32.4 1008.9 0.0
19/05:30pm SSE 8 14 - - - - - - - 32.9 1008.5 0.0
19/05:00pm SSE 8 12 - - - - - - - 33.9 1008.2 0.0
19/04:30pm SSE 12 16 - - - - - - - 34.2 1008.0 0.0
19/04:00pm SSE 9 14 - - - - - - - 34.0 1007.9 0.0
19/03:30pm SE 9 15 - - - - - - - 33.9 1008.2 0.0
19/03:00pm SE 11 17 - - - - - - - 34.2 1008.5 0.0
19/02:30pm SE 12 17 - - - - - - - 34.0 1008.7 0.0
19/02:00pm SE 10 14 - - - - - - - 34.0 1009.2 0.0
19/01:30pm SE 13 19 - - - - - - - 33.7 1009.4 0.0
19/01:00pm ESE 11 17 - - - - - - - 33.5 1009.7 0.0
19/12:30pm SE 13 19 - - - - - - - 32.9 1010.1 0.0
19/12:00pm SE 12 17 - - - - - - - 32.5 1010.5 0.0
19/11:30am SE 12 16 - - - - - - - 32.9 1011.1 0.0
19/11:00am SE 11 16 - - - - - - - 30.9 1011.5 0.0
19/10:30am SE 10 14 - - - - - - - 29.7 1011.6 0.0
19/10:00am SE 12 17 - - - - - - - 30.1 1011.3 0.0
19/09:30am SE 9 15 - - - - - - - 28.9 1011.2 0.0
19/09:00am SE 8 11 - - - - - - - 28.3 1010.9 0.0
19/08:30am SSE 8 11 - - - - - - - 27.3 1010.8 0.0
19/08:00am SE 7 10 - - - - - - - 26.9 1010.6 0.0
19/07:30am SSE 8 10 - - - - - - - 26.7 1010.2 0.0
19/07:00am SSE 6 8 - - - - - - - 26.1 1009.9 0.0
19/06:30am SSE 5 7 - - - - - - - 26.1 1009.5 0.0
19/06:00am SE 6 8 - - - - - - - 26.5 1009.2 0.0
19/05:30am SE 7 8 - - - - - - - 26.9 1009.1 0.0
19/05:00am SE 9 11 - - - - - - - 27.3 1008.9 0.0
19/04:30am SE 7 9 - - - - - - - 27.5 1008.9 0.0
19/04:00am SE 8 11 - - - - - - - 27.7 1009.1 0.0
19/03:30am SE 8 11 - - - - - - - 27.8 1009.2 0.0
19/03:00am SE 8 11 - - - - - - - 27.9 1009.3 0.0
19/02:30am SE 7 10 - - - - - - - 28.2 1009.7 0.0
19/02:00am SE 7 9 - - - - - - - 28.0 1009.9 0.0
19/01:30am SSE 3 4 - - - - - - - 25.5 1010.3 0.0
19/01:00am S 1 3 - - - - - - - 25.3 1010.4 0.0
19/12:30am SSE 4 5 - - - - - - - 26.2 1010.5 0.0
19/12:00am S 3 5 - - - - - - - 26.8 1010.6 0.0
 
Date/Time
CST
Wind Sea
Height
m
Swell Vis
km
Cloud Weather Temp
°C
Press
MSL
hPa
Rain since
9am
mm
Dir  Spd
kts
Gust
kts
Height
m
Period
s
Dir
18/11:30pm S 3 4 - - - - - - - 27.1 1010.7 0.0
18/11:00pm SSE 4 6 - - - - - - - 28.0 1010.3 0.0
18/10:30pm S 4 5 - - - - - - - 27.3 1010.2 0.0
18/10:00pm SE 4 6 - - - - - - - 28.6 1010.0 0.0
18/09:30pm SE 6 7 - - - - - - - 29.7 1009.8 0.0
18/09:00pm SE 5 7 - - - - - - - 29.9 1009.6 0.0
18/08:30pm SE 6 7 - - - - - - - 30.2 1009.3 0.0
18/08:00pm SSE 3 5 - - - - - - - 29.5 1009.0 0.0
18/07:30pm SE 4 5 - - - - - - - 30.7 1008.7 0.0
18/07:00pm ESE 4 6 - - - - - - - 31.0 1008.5 0.0
18/06:30pm SE 7 10 - - - - - - - 31.9 1008.1 0.0
18/06:00pm SE 10 15 - - - - - - - 32.8 1007.8 0.0
18/05:30pm SE 12 15 - - - - - - - 33.4 1007.5 0.0
18/05:00pm SE 9 11 - - - - - - - 33.2 1007.3 0.0
18/04:30pm SE 8 11 - - - - - - - 32.5 1007.3 0.0
18/04:00pm SE 9 11 - - - - - - - 31.6 1007.5 0.0
18/03:30pm ESE 6 8 - - - - - - - 30.9 1007.7 0.0
18/03:00pm SE 15 21 - - - - - - - 29.5 1008.0 0.0
18/02:30pm ESE 11 15 - - - - - - - 34.3 1007.9 0.0
18/02:00pm E 9 14 - - - - - - - 34.9 1008.2 0.0
18/01:30pm SE 11 16 - - - - - - - 34.2 1008.5 0.0
18/01:00pm ESE 10 14 - - - - - - - 34.5 1009.1 0.0
18/12:30pm ESE 10 15 - - - - - - - 33.5 1009.5 0.0
18/12:00pm ESE 13 18 - - - - - - - 33.1 1010.0 0.0
18/11:30am ESE 15 22 - - - - - - - 33.1 1010.5 0.0
18/11:00am SE 13 20 - - - - - - - 32.9 1010.7 0.0
18/10:30am ESE 14 23 - - - - - - - 31.6 1010.9 0.0
18/10:00am ESE 11 17 - - - - - - - 30.8 1011.2 0.0
18/09:30am SE 10 14 - - - - - - - 30.2 1010.9 0.0
18/09:00am SE 9 13 - - - - - - - 29.3 1010.7 0.0
18/08:30am SE 7 11 - - - - - - - 28.7 1010.6 0.0
18/08:00am SE 7 9 - - - - - - - 27.7 1010.3 0.0
18/07:30am SE 6 8 - - - - - - - 27.3 1009.9 0.0

Other formats

Comma delimited format used in spreadsheet applications
http://www.bom.gov.au/fwo/IDD60701/IDD60701.95111.axf

JavaScript Object Notation format (JSON) in row-major order
http://www.bom.gov.au/fwo/IDD60701/IDD60701.95111.json

Data quality

Most of these data are generated automatically and are frequently updated. Quality checks on data are not normally performed. It is possible for incorrect values to appear. Refer to information at About Latest Weather Observations and please check the disclaimer before using these data.